CheckWX is a tool to help pilots better visualize weather data.  It is not intended as a substitute for an official pre-flight weather briefing.

21:22:19 UTC

KCDW METAR
Essex County Airport
Caldwell, New Jersey, USA
Current

29 mins ago

KCDW 182053Z 30019G23KT 10SM BKN041 03/M06 A2996 RMK AO2 PK WND 33031/2015 PRESRR SLP154 60000 T00331056 53032
Observed
Feb-18 @ 20:53 UTC
Wind
  • 300° at 19 KTS
  • Gusting to 23 KTS
Visibility
10 SM
Flight Rules
VFR
Cloud Levels
  • Broken at 4,100' AGL
Temperature
C / 37°F
Dewpoint
-6°C / 21°F
Humidity
52%
Altimeter
29.96" Hg
Pressure
1015.4 hPa
Previous

1 hour ago

KCDW 181953Z 32017G23KT 10SM BKN037 06/M03 A2991 RMK AO2 PK WND 30029/1942 RAE10 SLP135 P0000 T00561028
Observed
Feb-18 @ 19:53 UTC
Wind
  • 320° at 17 KTS
  • Gusting to 23 KTS
Visibility
10 SM
Flight Rules
VFR
Cloud Levels
  • Broken at 3,700' AGL
Temperature
C / 43°F
Dewpoint
-3°C / 27°F
Humidity
53%
Altimeter
29.91" Hg
Pressure
1013.5 hPa
Current Rain
0.01"
Previous

2 hours ago

KCDW 181936Z 29017G24KT 10SM SCT029 SCT037 05/M01 A2990 RMK AO2 RAE10 P0000 T00501011
Observed
Feb-18 @ 19:36 UTC
Wind
  • 290° at 17 KTS
  • Gusting to 24 KTS
Visibility
10 SM
Flight Rules
VFR
Cloud Levels
  • Scattered at 2,900' AGL
  • Scattered at 3,700' AGL
Temperature
C / 41°F
Dewpoint
-1°C / 30°F
Humidity
66%
Altimeter
29.9" Hg
Pressure
1012.52 hPa
Current Rain
0.01"